Hazard, Nebraska
Current Conditions -  °F | °C
As of 1:15 PM on Friday 24 Oct 2014 (Local Time) from KEAR Reporting Station
Clear Clear  
Wind Chill: 73°   Ceiling: Unl
Heat Index: 73°   Visibility: 10mi
Dew Point: 46°   Wind: 12mph
Humidity: 38%   Direction: 290°WNW
Pressure: 29.98"   Gusts: NA
Location:  41.09°N, 99.08°W
Report Text: KEAR 241815Z 29010KT 10SM CLR 23/08 A2998 RMK AO1
Loading
Personal Weather Stations






























Interactive Weather Map
Tropical Storm Tracking
New forecast layout! Learn more

10-Day Weather Forecast

Advertisements
Track Severe Weather on mobile